Rechercher aéroport 
image banner adimage banner adimage banner ad
image banner ad

O43 - Yerington Muni

Situé à Yerington, United States

ICAO - O43, IATA -

Données fournies par Airmate  

Information générale

Coordonnées: N39°0'20" W119°9'24"
Élévation : 4382 feet MSL.
Variation magnétique : 16° East
Voir autres Aéroports à Nevada

Données opérationnelles

Special qualification required
Heure actuelle UTC:
Heure actuelle locale:
Météo à : KMEV - Minden-Tahoe ( 51 km )
METAR: KMEV 132115Z AUTO 24013KT 10SM 32/04 A2996 RMK AO2
TAF: KMEV 131720Z 1318/1418 VRB04KT P6SM SKC FM132100 26012G22KT P6SM FEW110 FM140400 11006KT P6SM SKC WS020/22035KT FM141600 19014G22KT P6SM FEW070
Voir NOTAMs / SUP AIP / TFR affectant cet aéroport [VIEW]
Fréquences de communication: [VIEW]

Pistes:

Identifiant RWYQFULongueur (ft)Largeur (ft)SurfaceLDA (ft)
02581475ASPH
20581475ASPH

Coordonnées de l'aéroport

Adresse: Yerington United States

Vue satellite de O43